Time;durP1;ratioP1;P1;durP2;ratioP2;P2;SDS_P1;SDS_P2;PMS_P1;PMS_P2;Temp;Humidity;BMP_temperature;BMP_pressure;BME280_temperature;BME280_humidity;BME280_pressure;Samples;Min_cycle;Max_cycle;Signal;HPM_P1;HPM_P2
2022/02/01 00:00:45;;;;;;;0.20;0.20;;;3.00;99.90;;;;;;5055287;28;20509;-87
2022/02/01 00:03:16;;;;;;;0.20;0.20;;;3.00;99.90;;;;;;5053008;28;20049;-91
2022/02/01 00:05:52;;;;;;;0.20;0.20;;;3.00;99.90;;;;;;5069974;28;20037;-92
2022/02/01 00:08:34;;;;;;;0.10;0.10;;;3.10;99.90;;;;;;5070138;28;20036;-92
2022/02/01 00:16:30;;;;;;;0.13;0.13;;;3.10;99.90;;;;;;5053238;28;20401;-92
2022/02/01 00:19:33;;;;;;;0.10;0.10;;;3.10;99.90;;;;;;5069039;28;20042;-88
2022/02/01 00:38:26;;;;;;;0.10;0.10;;;3.30;99.90;;;;;;5052457;28;20046;-92
2022/02/01 00:40:56;;;;;;;0.10;0.10;;;3.30;99.90;;;;;;5069164;28;20450;-87
2022/02/01 00:43:23;;;;;;;0.20;0.20;;;3.30;99.90;;;;;;5068203;28;20041;-91
2022/02/01 00:45:51;;;;;;;0.10;0.10;;;3.30;99.90;;;;;;5051977;28;20061;-92
2022/02/01 00:48:18;;;;;;;0.20;0.20;;;4.30;99.90;;;;;;5051929;28;20046;-88
2022/02/01 00:50:44;;;;;;;0.20;0.20;;;3.30;99.90;;;;;;5068500;28;20040;-92
2022/02/01 00:53:12;;;;;;;0.20;0.20;;;3.40;99.90;;;;;;5068577;28;20077;-90
2022/02/01 00:55:39;;;;;;;0.10;0.10;;;3.30;99.90;;;;;;5068591;28;20068;-92
2022/02/01 00:58:06;;;;;;;0.10;0.10;;;3.30;99.90;;;;;;5051680;28;20049;-92
2022/02/01 01:00:33;;;;;;;0.20;0.20;;;3.90;99.90;;;;;;5035707;28;20043;-88
2022/02/01 01:02:59;;;;;;;0.20;0.20;;;3.40;99.90;;;;;;5068274;28;20045;-91
2022/02/01 01:05:26;;;;;;;0.10;0.10;;;3.30;99.90;;;;;;5067743;28;20100;-88
2022/02/01 01:07:53;;;;;;;0.10;0.10;;;3.30;99.90;;;;;;5051319;28;20041;-88
2022/02/01 01:10:19;;;;;;;0.20;0.20;;;3.60;99.90;;;;;;5067774;28;20091;-88
2022/02/01 01:12:57;;;;;;;0.10;0.10;;;3.40;99.90;;;;;;5067909;28;20038;-88
2022/02/01 01:15:28;;;;;;;0.20;0.20;;;3.50;99.90;;;;;;5036465;28;20049;-92
2022/02/01 01:45:09;;;;;;;0.20;0.20;;;3.40;99.90;;;;;;5052680;28;20045;-87
2022/02/01 01:55:38;;;;;;;0.20;0.20;;;3.90;99.90;;;;;;5050595;28;20052;-87
2022/02/01 01:58:06;;;;;;;0.10;0.10;;;3.40;99.90;;;;;;5051337;28;20040;-88
2022/02/01 02:00:58;;;;;;;0.10;0.10;;;3.40;99.90;;;;;;5050718;28;20120;-92
2022/02/01 02:03:26;;;;;;;0.10;0.10;;;3.40;99.90;;;;;;5050551;28;20091;-87
2022/02/01 02:05:53;;;;;;;0.20;0.20;;;3.40;99.90;;;;;;5070736;28;20072;-92
2022/02/01 02:08:20;;;;;;;0.10;0.10;;;3.30;99.90;;;;;;5054842;28;20419;-87
2022/02/01 02:11:04;;;;;;;0.10;0.10;;;3.30;99.90;;;;;;5070880;28;20037;-87
2022/02/01 02:16:24;;;;;;;0.20;0.20;;;3.40;99.90;;;;;;5071277;28;20417;-92
2022/02/01 02:18:51;;;;;;;0.10;0.10;;;3.30;99.90;;;;;;5071755;28;20060;-92
2022/02/01 02:21:18;;;;;;;0.10;0.10;;;3.30;99.90;;;;;;5071594;28;20739;-92
2022/02/01 02:23:45;;;;;;;0.13;0.13;;;3.20;99.90;;;;;;5054221;28;20045;-88
2022/02/01 02:26:14;;;;;;;0.10;0.10;;;3.60;99.90;;;;;;5071814;28;20491;-92
2022/02/01 02:28:41;;;;;;;0.10;0.10;;;3.20;99.90;;;;;;5054190;28;20037;-92
2022/02/01 02:31:09;;;;;;;0.20;0.20;;;3.30;99.90;;;;;;5071023;28;20044;-87
2022/02/01 02:33:36;;;;;;;0.17;0.17;;;4.20;99.90;;;;;;5070746;28;20040;-88
2022/02/01 02:36:18;;;;;;;0.10;0.10;;;3.20;99.90;;;;;;5038009;28;20041;-88
2022/02/01 02:46:34;;;;;;;0.10;0.10;;;3.30;99.90;;;;;;5070313;28;20808;-91
2022/02/01 02:49:05;;;;;;;0.10;0.10;;;3.40;99.90;;;;;;5054170;28;20060;-92
2022/02/01 02:51:32;;;;;;;0.10;0.10;;;3.40;99.90;;;;;;5054348;28;20103;-89
2022/02/01 02:54:10;;;;;;;0.10;0.10;;;3.20;99.90;;;;;;5054061;28;20081;-87
2022/02/01 02:56:37;;;;;;;0.10;0.10;;;3.30;99.90;;;;;;5053950;28;20037;-87
2022/02/01 02:59:04;;;;;;;0.10;0.10;;;3.20;99.90;;;;;;5054111;28;20541;-88
2022/02/01 03:01:31;;;;;;;0.20;0.20;;;3.30;99.90;;;;;;5070566;28;20103;-87
2022/02/01 03:03:58;;;;;;;0.20;0.20;;;3.30;99.90;;;;;;5070577;28;20139;-92
2022/02/01 03:06:25;;;;;;;0.10;0.10;;;3.20;99.90;;;;;;5070764;28;20045;-88
2022/02/01 03:08:52;;;;;;;0.10;0.10;;;4.20;99.90;;;;;;5069986;28;20091;-92
2022/02/01 03:11:18;;;;;;;0.10;0.10;;;3.30;99.90;;;;;;5053833;28;20048;-87
2022/02/01 03:13:54;;;;;;;0.20;0.20;;;3.20;99.90;;;;;;5053064;28;20049;-92
2022/02/01 03:21:51;;;;;;;0.10;0.10;;;3.40;99.90;;;;;;5056098;28;20128;-92
2022/02/01 03:24:18;;;;;;;0.10;0.10;;;3.70;99.90;;;;;;5037291;28;20073;-91
2022/02/01 03:26:45;;;;;;;0.10;0.10;;;3.20;99.90;;;;;;5070232;28;20045;-91
2022/02/01 03:29:11;;;;;;;0.10;0.10;;;3.20;99.90;;;;;;5070456;28;20478;-88
2022/02/01 03:31:38;;;;;;;0.20;0.20;;;3.60;99.90;;;;;;5069932;28;20064;-92
2022/02/01 03:34:05;;;;;;;0.20;0.20;;;3.20;99.90;;;;;;5070641;28;20402;-92
2022/02/01 03:36:32;;;;;;;0.15;0.15;;;3.50;99.90;;;;;;5070094;28;20391;-88
2022/02/01 03:39:00;;;;;;;0.10;0.10;;;3.10;99.90;;;;;;5036626;28;20044;-91
2022/02/01 03:41:27;;;;;;;0.20;0.20;;;3.70;99.90;;;;;;5053319;28;20041;-88
2022/02/01 03:43:54;;;;;;;0.10;0.10;;;3.50;99.90;;;;;;5053728;28;20038;-92
2022/02/01 03:46:21;;;;;;;0.10;0.10;;;3.80;99.90;;;;;;5070443;28;20061;-92
2022/02/01 03:48:48;;;;;;;0.15;0.15;;;3.20;99.90;;;;;;5036793;28;20049;-87
2022/02/01 03:51:15;;;;;;;0.10;0.10;;;3.20;99.90;;;;;;5054400;28;20041;-92
2022/02/01 03:53:41;;;;;;;0.10;0.10;;;3.20;99.90;;;;;;5036593;28;20122;-92
2022/02/01 03:56:08;;;;;;;0.10;0.10;;;3.20;99.90;;;;;;5037291;28;20045;-87
2022/02/01 03:58:35;;;;;;;0.20;0.20;;;3.20;99.90;;;;;;5069963;28;20033;-92
2022/02/01 04:01:02;;;;;;;0.20;0.20;;;3.10;99.90;;;;;;5068999;28;20437;-88
2022/02/01 04:03:29;;;;;;;0.17;0.17;;;3.70;99.90;;;;;;5036654;28;20869;-88
2022/02/01 04:05:55;;;;;;;0.10;0.10;;;4.00;99.90;;;;;;5052450;28;20415;-88
2022/02/01 04:08:23;;;;;;;0.10;0.10;;;4.10;99.90;;;;;;5069080;28;20131;-91
2022/02/01 04:10:51;;;;;;;0.10;0.10;;;4.10;99.90;;;;;;5036428;28;20041;-87
2022/02/01 04:13:19;;;;;;;0.10;0.10;;;3.00;99.90;;;;;;5036716;28;20044;-88
2022/02/01 04:15:46;;;;;;;0.10;0.10;;;3.00;99.90;;;;;;5052418;28;20042;-91
2022/02/01 04:18:14;;;;;;;0.10;0.10;;;3.50;99.90;;;;;;5069155;28;20080;-88
2022/02/01 04:20:40;;;;;;;0.20;0.20;;;3.00;99.90;;;;;;5035699;28;20048;-87
2022/02/01 04:23:07;;;;;;;0.10;0.10;;;3.00;99.90;;;;;;5068341;28;20041;-88
2022/02/01 04:25:34;;;;;;;0.10;0.10;;;3.50;99.90;;;;;;5036138;28;20663;-88
2022/02/01 04:28:04;;;;;;;0.10;0.10;;;3.10;99.90;;;;;;5035544;28;20045;-88
2022/02/01 04:30:30;;;;;;;0.10;0.10;;;3.10;99.90;;;;;;5068180;28;20457;-87
2022/02/01 04:32:57;;;;;;;0.10;0.10;;;3.10;99.90;;;;;;5035915;28;20083;-88
2022/02/01 04:35:27;;;;;;;0.10;0.10;;;3.10;99.90;;;;;;5068814;28;20570;-88
2022/02/01 04:37:57;;;;;;;0.10;0.10;;;3.80;99.90;;;;;;5035806;28;20063;-93
2022/02/01 04:40:26;;;;;;;0.10;0.10;;;4.00;99.90;;;;;;5052633;28;20478;-87
2022/02/01 04:42:53;;;;;;;0.20;0.20;;;3.20;99.90;;;;;;5067719;28;20042;-88
2022/02/01 04:45:22;;;;;;;0.20;0.20;;;3.40;99.90;;;;;;5068866;28;20036;-87
2022/02/01 04:47:51;;;;;;;0.10;0.10;;;4.20;99.90;;;;;;5051072;28;20510;-88
2022/02/01 04:50:29;;;;;;;0.10;0.10;;;3.20;99.90;;;;;;5052153;28;20067;-88
2022/02/01 04:52:56;;;;;;;0.20;0.20;;;3.30;99.90;;;;;;5034904;28;20099;-92
2022/02/01 04:55:44;;;;;;;0.20;0.20;;;3.50;99.90;;;;;;5051897;28;20079;-88
2022/02/01 04:58:11;;;;;;;0.10;0.10;;;3.40;99.90;;;;;;5052140;28;20045;-87
2022/02/01 05:00:38;;;;;;;0.10;0.10;;;3.40;99.90;;;;;;5068251;28;20101;-88
2022/02/01 05:03:05;;;;;;;0.10;0.10;;;3.40;99.90;;;;;;5051191;28;20077;-87
2022/02/01 05:05:32;;;;;;;0.20;0.20;;;3.40;99.90;;;;;;5067952;28;20038;-92
2022/02/01 05:08:11;;;;;;;0.10;0.10;;;3.40;99.90;;;;;;5067664;28;20049;-91
2022/02/01 05:10:38;;;;;;;0.20;0.20;;;3.40;99.90;;;;;;5051437;28;20068;-93
2022/02/01 05:16:02;;;;;;;0.20;0.20;;;4.10;99.90;;;;;;5067446;28;20045;-88
2022/02/01 05:18:33;;;;;;;0.10;0.10;;;3.50;99.90;;;;;;5069112;28;20403;-88
2022/02/01 05:21:11;;;;;;;0.10;0.10;;;3.50;99.90;;;;;;5068916;28;20042;-87
2022/02/01 05:23:47;;;;;;;0.10;0.10;;;3.50;99.90;;;;;;5037857;28;20059;-92
2022/02/01 05:26:15;;;;;;;0.10;0.10;;;4.40;99.90;;;;;;5050703;28;20049;-87
2022/02/01 05:28:42;;;;;;;0.10;0.10;;;3.50;99.90;;;;;;5067395;28;20048;-92
2022/02/01 05:31:09;;;;;;;0.10;0.10;;;4.60;99.90;;;;;;5035456;28;20037;-93
2022/02/01 05:33:37;;;;;;;0.10;0.10;;;4.10;99.90;;;;;;5051520;28;20048;-92
2022/02/01 05:36:05;;;;;;;0.13;0.13;;;3.50;99.90;;;;;;5067696;28;20049;-91
2022/02/01 05:38:33;;;;;;;0.10;0.10;;;3.50;99.90;;;;;;5050472;28;20045;-93
2022/02/01 05:41:00;;;;;;;0.20;0.20;;;3.90;99.90;;;;;;5050494;28;20045;-88
2022/02/01 05:43:28;;;;;;;0.10;0.10;;;3.60;99.90;;;;;;5067348;28;20037;-92
2022/02/01 05:45:57;;;;;;;0.10;0.10;;;3.50;99.90;;;;;;5034268;28;20037;-88
2022/02/01 05:48:25;;;;;;;0.20;0.20;;;3.50;99.90;;;;;;5031413;28;20481;-88
2022/02/01 05:50:54;;;;;;;0.10;0.10;;;4.30;99.90;;;;;;5034776;28;20473;-93
2022/02/01 05:53:21;;;;;;;0.10;0.10;;;3.50;99.90;;;;;;5034210;28;20034;-88
2022/02/01 05:55:48;;;;;;;0.20;0.20;;;4.20;99.90;;;;;;5050436;28;20037;-89
2022/02/01 05:58:16;;;;;;;0.10;0.10;;;3.50;99.90;;;;;;5034377;28;20037;-92
2022/02/01 06:00:44;;;;;;;0.13;0.13;;;3.00;99.90;;;;;;5051338;28;20128;-89
2022/02/01 06:03:11;;;;;;;0.10;0.10;;;4.40;99.90;;;;;;5033813;28;20498;-88
2022/02/01 06:05:38;;;;;;;0.13;0.13;;;4.60;99.90;;;;;;5050592;28;20040;-92
2022/02/01 06:08:05;;;;;;;0.10;0.10;;;3.60;99.90;;;;;;5050301;28;20080;-88
2022/02/01 06:10:32;;;;;;;0.10;0.10;;;3.70;99.90;;;;;;5034286;28;20042;-91
2022/02/01 06:12:59;;;;;;;0.10;0.10;;;3.60;99.90;;;;;;5034523;28;20064;-88
2022/02/01 06:15:28;;;;;;;0.10;0.10;;;3.70;99.90;;;;;;5033883;28;20049;-93
2022/02/01 06:17:56;;;;;;;0.20;0.20;;;3.70;99.90;;;;;;5050470;28;20037;-93
2022/02/01 06:20:23;;;;;;;0.10;0.10;;;4.10;99.90;;;;;;5051291;28;20513;-88
2022/02/01 06:22:49;;;;;;;0.15;0.15;;;4.30;99.90;;;;;;5034013;28;20034;-91
2022/02/01 06:25:23;;;;;;;0.20;0.20;;;3.70;99.90;;;;;;5034158;28;20041;-91
2022/02/01 06:27:50;;;;;;;0.10;0.10;;;3.70;99.90;;;;;;5049917;28;20080;-92
2022/02/01 06:30:17;;;;;;;0.10;0.10;;;3.80;99.90;;;;;;5034756;28;20049;-93
2022/02/01 06:32:43;;;;;;;0.10;0.10;;;3.80;99.90;;;;;;5034077;28;20037;-88
2022/02/01 06:35:10;;;;;;;0.20;0.20;;;3.80;99.90;;;;;;5034196;28;20045;-88
2022/02/01 06:37:37;;;;;;;0.10;0.10;;;3.90;99.90;;;;;;5034348;28;20042;-93
2022/02/01 06:40:04;;;;;;;0.20;0.20;;;4.50;99.90;;;;;;5033965;28;20040;-88
2022/02/01 06:42:33;;;;;;;0.10;0.10;;;3.90;99.90;;;;;;5034081;28;20040;-87
2022/02/01 06:45:04;;;;;;;0.13;0.13;;;3.90;99.90;;;;;;5050996;28;20037;-91
2022/02/01 06:47:31;;;;;;;0.10;0.10;;;3.90;99.90;;;;;;5034112;28;20059;-88
2022/02/01 06:49:57;;;;;;;0.20;0.20;;;4.00;99.90;;;;;;5033721;28;20049;-92
2022/02/01 06:52:24;;;;;;;0.20;0.20;;;4.00;99.90;;;;;;5035925;28;20045;-88
2022/02/01 06:54:51;;;;;;;0.20;0.20;;;4.00;99.90;;;;;;5037240;28;20048;-88
2022/02/01 06:57:18;;;;;;;0.10;0.10;;;4.00;99.90;;;;;;5037027;28;20128;-92
2022/02/01 06:59:44;;;;;;;0.10;0.10;;;4.70;99.90;;;;;;5037809;28;20029;-88
2022/02/01 07:02:11;;;;;;;0.10;0.10;;;4.00;99.90;;;;;;5053159;28;20073;-88
2022/02/01 07:04:38;;;;;;;0.10;0.10;;;4.90;99.90;;;;;;5053232;28;20494;-92
2022/02/01 07:07:04;;;;;;;0.10;0.10;;;4.30;99.90;;;;;;5036652;28;20098;-91
2022/02/01 07:09:33;;;;;;;0.10;0.10;;;4.00;99.90;;;;;;5052411;28;20048;-87
2022/02/01 07:12:00;;;;;;;0.10;0.10;;;4.00;99.90;;;;;;5036807;28;20047;-90
2022/02/01 07:14:26;;;;;;;0.10;0.10;;;5.10;99.90;;;;;;5057705;28;20040;-88
2022/02/01 07:16:53;;;;;;;0.10;0.10;;;4.10;99.90;;;;;;5068972;28;20037;-88
2022/02/01 07:19:20;;;;;;;0.13;0.13;;;4.00;99.90;;;;;;5040137;28;20048;-87
2022/02/01 07:21:48;;;;;;;0.20;0.20;;;4.90;99.90;;;;;;5073488;28;20039;-88
2022/02/01 07:24:18;;;;;;;0.10;0.10;;;5.30;99.90;;;;;;5050924;28;20041;-88
2022/02/01 07:26:54;;;;;;;0.10;0.10;;;4.10;99.90;;;;;;5072372;28;20045;-88
2022/02/01 07:29:21;;;;;;;;;;;4.10;99.90;;;;;;5062192;28;20106;-92
2022/02/01 07:31:48;;;;;;;0.10;0.10;;;4.30;99.90;;;;;;5073105;28;19917;-88
2022/02/01 07:34:15;;;;;;;0.10;0.10;;;4.20;99.90;;;;;;5072645;28;20093;-87
2022/02/01 07:36:43;;;;;;;0.10;0.10;;;4.10;99.90;;;;;;5068985;28;20042;-87
2022/02/01 07:39:10;;;;;;;0.10;0.10;;;4.10;99.90;;;;;;5072742;28;20041;-88
2022/02/01 07:41:38;;;;;;;0.20;0.20;;;4.00;99.90;;;;;;5066350;28;20037;-87
2022/02/01 07:44:05;;;;;;;0.10;0.10;;;4.00;99.90;;;;;;5047822;28;20086;-92
2022/02/01 07:46:33;;;;;;;0.10;0.10;;;4.00;99.90;;;;;;5070410;28;20069;-87
2022/02/01 07:49:00;;;;;;;0.10;0.10;;;4.00;99.90;;;;;;5073540;28;20040;-88
2022/02/01 07:51:26;;;;;;;0.10;0.10;;;4.00;99.90;;;;;;5069667;28;20037;-92
2022/02/01 07:53:54;;;;;;;0.25;0.25;;;4.00;99.90;;;;;;5069145;28;20041;-88
2022/02/01 07:56:20;;;;;;;0.10;0.10;;;4.00;99.90;;;;;;5069042;28;20049;-87
2022/02/01 07:58:47;;;;;;;0.10;0.10;;;4.80;99.90;;;;;;5068728;28;20038;-90
2022/02/01 08:01:14;;;;;;;0.10;0.10;;;4.00;99.90;;;;;;5032864;28;20076;-89
2022/02/01 08:03:41;;;;;;;0.10;0.10;;;4.00;99.90;;;;;;5051714;28;20103;-88
2022/02/01 08:06:07;;;;;;;0.20;0.20;;;4.00;99.90;;;;;;5052049;28;20091;-91
2022/02/01 08:08:34;;;;;;;0.10;0.10;;;5.00;99.90;;;;;;5052539;28;20103;-88
2022/02/01 08:11:02;;;;;;;0.10;0.10;;;5.10;99.90;;;;;;5035587;28;20037;-87
2022/02/01 08:14:28;;;;;;;0.10;0.10;;;3.30;99.90;;;;;;5065994;28;20063;-87
2022/02/01 08:19:16;;;;;;;0.10;0.10;;;4.10;99.90;;;;;;5074780;28;20037;-88
2022/02/01 08:21:44;;;;;;;0.20;0.20;;;4.10;99.90;;;;;;5071389;28;20045;-93
2022/02/01 08:24:10;;;;;;;0.10;0.10;;;4.20;99.90;;;;;;5060106;28;20042;-88
2022/02/01 08:26:37;;;;;;;0.10;0.10;;;4.40;99.90;;;;;;5071107;28;20160;-88
2022/02/01 08:29:05;;;;;;;0.10;0.10;;;4.20;99.90;;;;;;5055351;28;20037;-91
2022/02/01 08:31:32;;;;;;;0.10;0.10;;;4.80;99.90;;;;;;5068520;28;20033;-92
2022/02/01 08:33:59;;;;;;;0.10;0.10;;;4.30;99.90;;;;;;5071306;28;20710;-87
2022/02/01 08:36:25;;;;;;;0.10;0.10;;;4.20;99.90;;;;;;5071323;28;20574;-92
2022/02/01 08:38:54;;;;;;;0.10;0.10;;;4.30;99.90;;;;;;5068700;28;20041;-88
2022/02/01 08:41:20;;;;;;;0.20;0.20;;;4.30;99.90;;;;;;5046070;28;20041;-87
2022/02/01 08:43:47;;;;;;;0.10;0.10;;;4.80;99.90;;;;;;5043254;28;20689;-87
2022/02/01 08:46:15;;;;;;;0.10;0.10;;;4.20;99.90;;;;;;5069794;28;20044;-88
2022/02/01 08:48:41;;;;;;;0.10;0.10;;;4.90;99.90;;;;;;5068376;28;20041;-87
2022/02/01 08:51:11;;;;;;;0.10;0.10;;;4.30;99.90;;;;;;5051033;28;20045;-92
2022/02/01 08:53:48;;;;;;;0.10;0.10;;;4.30;99.90;;;;;;5035459;28;20045;-92
2022/02/01 08:57:21;;;;;;;0.10;0.10;;;4.40;99.90;;;;;;5050842;28;20465;-90
2022/02/01 08:59:01;;;;;;;0.10;0.10;;;4.40;99.90;;;;;;5034533;28;20046;-87
2022/02/01 09:01:28;;;;;;;0.10;0.10;;;4.40;99.90;;;;;;5034818;28;20192;-87
2022/02/01 09:03:55;;;;;;;0.10;0.10;;;4.50;99.90;;;;;;5058521;28;20041;-93
2022/02/01 09:06:23;;;;;;;0.10;0.10;;;4.50;99.90;;;;;;5066762;28;20132;-87
2022/02/01 09:08:52;;;;;;;0.10;0.10;;;4.50;99.90;;;;;;5054627;28;20037;-91
2022/02/01 09:11:18;;;;;;;0.10;0.10;;;4.60;99.90;;;;;;5039829;28;20045;-92
2022/02/01 09:13:46;;;;;;;0.10;0.10;;;4.50;99.90;;;;;;5066437;28;20041;-88
2022/02/01 09:16:13;;;;;;;0.20;0.20;;;4.60;99.90;;;;;;5050040;28;20502;-87
2022/02/01 09:18:40;;;;;;;0.10;0.10;;;4.60;99.90;;;;;;5050267;28;20168;-90
2022/02/01 09:21:07;;;;;;;0.10;0.10;;;4.80;99.90;;;;;;5034146;28;20041;-88
2022/02/01 09:23:35;;;;;;;0.10;0.10;;;4.60;99.90;;;;;;5033421;28;20033;-91
2022/02/01 09:26:01;;;;;;;0.10;0.10;;;4.60;99.90;;;;;;5050563;28;20088;-87
2022/02/01 09:28:29;;;;;;;0.10;0.10;;;4.70;99.90;;;;;;5033718;28;20081;-86
2022/02/01 09:30:55;;;;;;;0.10;0.10;;;4.70;99.90;;;;;;5050690;28;20103;-88
2022/02/01 09:33:22;;;;;;;0.10;0.10;;;4.80;99.90;;;;;;5034440;28;20037;-91
2022/02/01 09:35:49;;;;;;;0.10;0.10;;;4.70;99.90;;;;;;5049907;28;20045;-91
2022/02/01 09:38:18;;;;;;;0.10;0.10;;;4.80;99.90;;;;;;5050136;28;20414;-87
2022/02/01 09:40:45;;;;;;;0.10;0.10;;;5.10;99.90;;;;;;5034298;28;20041;-91
2022/02/01 09:43:14;;;;;;;0.10;0.10;;;4.90;99.90;;;;;;5050852;28;20120;-88
2022/02/01 09:45:40;;;;;;;0.10;0.10;;;5.00;99.90;;;;;;5050481;28;20132;-90
2022/02/01 09:48:08;;;;;;;0.10;0.10;;;5.00;99.90;;;;;;5033925;28;20100;-91
2022/02/01 09:50:36;;;;;;;0.10;0.10;;;5.00;99.90;;;;;;5050163;28;20500;-88
2022/02/01 09:53:04;;;;;;;0.10;0.10;;;5.00;99.90;;;;;;5033755;28;20498;-88
2022/02/01 09:55:31;;;;;;;0.10;0.10;;;5.60;99.90;;;;;;5049540;28;20073;-87
2022/02/01 09:57:57;;;;;;;0.10;0.10;;;5.10;99.90;;;;;;5066113;28;20045;-87
2022/02/01 10:00:37;;;;;;;0.10;0.10;;;5.10;99.90;;;;;;5033761;28;20069;-87
2022/02/01 10:03:04;;;;;;;0.10;0.10;;;5.60;99.90;;;;;;5069460;28;20456;-91
2022/02/01 10:05:31;;;;;;;0.10;0.10;;;5.20;99.90;;;;;;5069806;28;20080;-86
2022/02/01 10:07:58;;;;;;;0.20;0.20;;;5.30;99.90;;;;;;5066584;28;20457;-91
2022/02/01 10:10:30;;;;;;;0.10;0.10;;;5.40;99.90;;;;;;5038322;28;20041;-87
2022/02/01 10:13:16;;;;;;;0.10;0.10;;;5.30;99.90;;;;;;5050038;28;20102;-87
2022/02/01 10:16:04;;;;;;;0.10;0.10;;;5.40;99.90;;;;;;5050184;28;20100;-90
2022/02/01 10:18:33;;;;;;;0.10;0.10;;;5.50;99.90;;;;;;5075927;28;20089;-90
2022/02/01 10:21:09;;;;;;;0.10;0.10;;;5.60;99.90;;;;;;5050046;28;20044;-91
2022/02/01 10:23:39;;;;;;;0.10;0.10;;;5.60;99.90;;;;;;5049544;28;20045;-89
2022/02/01 10:26:07;;;;;;;0.47;0.47;;;5.60;99.90;;;;;;5051282;28;20041;-87
2022/02/01 10:28:53;;;;;;;0.10;0.10;;;5.70;99.90;;;;;;5053114;28;20124;-90
2022/02/01 10:31:32;;;;;;;0.10;0.10;;;6.20;99.90;;;;;;5069616;28;20087;-87
2022/02/01 10:36:57;;;;;;;0.10;0.10;;;6.00;99.90;;;;;;5069512;28;20057;-89
2022/02/01 10:39:27;;;;;;;0.10;0.10;;;6.50;99.90;;;;;;5051514;28;20045;-87
2022/02/01 10:41:58;;;;;;;0.10;0.10;;;6.00;99.90;;;;;;5053348;28;20572;-91
2022/02/01 10:44:40;;;;;;;0.10;0.10;;;6.10;99.90;;;;;;5052169;28;20033;-87
2022/02/01 10:47:09;;;;;;;0.10;0.10;;;6.10;99.90;;;;;;5052442;28;20069;-91
2022/02/01 10:49:37;;;;;;;0.10;0.10;;;6.20;99.90;;;;;;5052264;28;20060;-91
2022/02/01 10:52:06;;;;;;;0.00;0.00;;;6.20;99.90;;;;;;5052650;28;20475;-91
2022/02/01 10:54:36;;;;;;;0.10;0.10;;;6.30;99.90;;;;;;5053123;28;20087;-91
2022/02/01 10:57:05;;;;;;;0.10;0.10;;;6.30;99.90;;;;;;5069790;28;20048;-92
2022/02/01 10:59:32;;;;;;;0.00;0.00;;;6.30;99.90;;;;;;5053055;28;20045;-91
2022/02/01 11:02:00;;;;;;;0.00;0.00;;;6.40;99.90;;;;;;5053125;28;20034;-91
2022/02/01 11:04:29;;;;;;;0.10;0.10;;;7.00;99.90;;;;;;5069574;28;20040;-91
2022/02/01 11:06:56;;;;;;;0.03;0.03;;;6.50;99.90;;;;;;5053183;28;20041;-92
2022/02/01 11:09:29;;;;;;;0.00;0.00;;;6.50;99.90;;;;;;5055035;28;20045;-91
2022/02/01 11:12:05;;;;;;;0.10;0.10;;;6.50;99.90;;;;;;5053243;28;20099;-91
2022/02/01 11:14:39;;;;;;;0.10;0.10;;;6.60;99.90;;;;;;5052093;28;20086;-87
2022/02/01 11:17:14;;;;;;;0.10;0.10;;;6.60;99.90;;;;;;5058328;28;20030;-91
2022/02/01 11:19:54;;;;;;;0.10;0.10;;;6.60;99.90;;;;;;5070922;28;20041;-91
2022/02/01 11:22:36;;;;;;;0.10;0.10;;;6.70;99.90;;;;;;5061159;28;20067;-93
2022/02/01 11:25:21;;;;;;;0.10;0.10;;;6.80;99.90;;;;;;5065946;28;20037;-92
2022/02/01 11:28:08;;;;;;;0.10;0.10;;;6.80;99.90;;;;;;5063774;28;20045;-87
2022/02/01 11:30:41;;;;;;;0.10;0.10;;;6.80;99.90;;;;;;5060597;28;20049;-87
2022/02/01 11:33:10;;;;;;;0.10;0.10;;;6.90;99.90;;;;;;5065741;28;20041;-92
2022/02/01 11:35:38;;;;;;;0.15;0.15;;;6.90;99.90;;;;;;5062643;28;20041;-92
2022/02/01 11:38:08;;;;;;;0.10;0.10;;;6.90;99.90;;;;;;5053482;28;20040;-87
2022/02/01 11:40:41;;;;;;;0.10;0.10;;;7.00;99.90;;;;;;5052240;28;20045;-92
2022/02/01 11:43:11;;;;;;;0.10;0.10;;;7.00;99.90;;;;;;5037610;28;20102;-87
2022/02/01 11:45:40;;;;;;;0.05;0.05;;;7.10;99.90;;;;;;5035687;28;20072;-88
2022/02/01 11:48:29;;;;;;;0.10;0.10;;;7.00;99.90;;;;;;5035278;28;20060;-87
2022/02/01 11:51:01;;;;;;;0.10;0.10;;;7.10;99.90;;;;;;5052631;28;20106;-90
2022/02/01 11:53:38;;;;;;;0.10;0.10;;;7.10;99.90;;;;;;5052398;28;20037;-89
2022/02/01 11:56:07;;;;;;;0.08;0.08;;;7.10;99.90;;;;;;5052000;28;20045;-93
2022/02/01 11:58:43;;;;;;;0.10;0.10;;;7.00;99.90;;;;;;5051782;28;20029;-92
2022/02/01 12:01:36;;;;;;;0.10;0.10;;;7.10;99.90;;;;;;5067971;28;20502;-87
2022/02/01 12:04:17;;;;;;;0.10;0.10;;;7.10;99.90;;;;;;5051846;28;20037;-92
2022/02/01 12:06:47;;;;;;;0.10;0.10;;;7.10;99.90;;;;;;5050990;28;20037;-92
2022/02/01 12:09:21;;;;;;;0.10;0.10;;;7.10;99.90;;;;;;5052635;28;20417;-87
2022/02/01 12:11:55;;;;;;;0.10;0.10;;;7.20;99.90;;;;;;5068081;28;20045;-92
2022/02/01 12:14:22;;;;;;;0.00;0.00;;;7.20;99.90;;;;;;5052161;28;20048;-92
2022/02/01 12:16:50;;;;;;;0.10;0.10;;;7.30;99.90;;;;;;5034859;28;20045;-87
2022/02/01 12:19:51;;;;;;;0.10;0.10;;;7.30;99.90;;;;;;5052204;28;20049;-92
2022/02/01 12:22:40;;;;;;;0.10;0.10;;;7.20;99.90;;;;;;5056962;28;20136;-92
2022/02/01 12:25:10;;;;;;;0.10;0.10;;;7.40;99.90;;;;;;5071703;28;20402;-92
2022/02/01 12:27:39;;;;;;;0.10;0.10;;;7.90;99.90;;;;;;5067181;28;20051;-92
2022/02/01 12:30:08;;;;;;;0.10;0.10;;;7.40;99.90;;;;;;5062955;28;20037;-91
2022/02/01 12:32:36;;;;;;;0.00;0.00;;;7.40;99.90;;;;;;5054655;28;20044;-85
2022/02/01 12:35:04;;;;;;;0.00;0.00;;;7.50;99.90;;;;;;5052105;28;20572;-85
2022/02/01 12:37:31;;;;;;;0.10;0.10;;;7.50;99.90;;;;;;5055495;28;20413;-93
2022/02/01 12:40:03;;;;;;;0.10;0.10;;;7.50;99.90;;;;;;5035183;28;20037;-93
2022/02/01 12:42:43;;;;;;;0.10;0.10;;;7.50;99.90;;;;;;5052374;28;20041;-93
2022/02/01 12:48:04;;;;;;;0.10;0.10;;;7.60;99.90;;;;;;5052507;28;20419;-88
2022/02/01 12:50:34;;;;;;;0.10;0.10;;;7.70;99.90;;;;;;5067663;28;20061;-85
2022/02/01 12:53:03;;;;;;;0.10;0.10;;;7.70;99.90;;;;;;5051778;28;20055;-92
2022/02/01 12:55:31;;;;;;;0.10;0.10;;;7.80;99.90;;;;;;5050762;28;20045;-90
2022/02/01 12:58:04;;;;;;;0.05;0.05;;;7.80;99.90;;;;;;5066602;28;20041;-85
2022/02/01 13:00:32;;;;;;;0.10;0.10;;;7.80;99.90;;;;;;5051319;28;20041;-85
2022/02/01 13:03:02;;;;;;;0.00;0.00;;;7.90;99.90;;;;;;5051722;28;20514;-85
2022/02/01 13:05:30;;;;;;;0.10;0.10;;;7.90;99.90;;;;;;5050909;28;20045;-84
2022/02/01 13:08:21;;;;;;;0.10;0.10;;;7.90;99.90;;;;;;5060470;28;20083;-85
2022/02/01 13:21:22;;;;;;;0.10;0.10;;;8.00;99.90;;;;;;5067397;28;20045;-91
2022/02/01 13:23:55;;;;;;;0.05;0.05;;;8.00;99.90;;;;;;5050183;28;20470;-87
2022/02/01 13:26:34;;;;;;;0.00;0.00;;;8.00;99.90;;;;;;5066909;28;20084;-84
2022/02/01 13:29:12;;;;;;;0.10;0.10;;;8.10;99.90;;;;;;5050190;28;20045;-90
2022/02/01 13:31:43;;;;;;;0.10;0.10;;;8.10;99.90;;;;;;5034253;28;20130;-89
2022/02/01 13:34:13;;;;;;;0.00;0.00;;;8.10;99.90;;;;;;5051435;28;20041;-85
2022/02/01 13:36:53;;;;;;;0.00;0.00;;;8.10;99.90;;;;;;5033480;28;20037;-86
2022/02/01 13:39:39;;;;;;;0.10;0.10;;;8.10;99.90;;;;;;5051172;28;20482;-89
2022/02/01 13:42:07;;;;;;;0.10;0.10;;;8.10;99.90;;;;;;5059040;28;20112;-85
2022/02/01 13:44:35;;;;;;;0.00;0.00;;;8.10;99.90;;;;;;5051835;28;20045;-89
2022/02/01 13:47:09;;;;;;;0.10;0.10;;;8.10;99.90;;;;;;5053101;28;20053;-89
2022/02/01 13:49:44;;;;;;;0.10;0.10;;;8.10;99.90;;;;;;5050164;28;20105;-87
2022/02/01 13:52:42;;;;;;;0.10;0.10;;;8.10;99.90;;;;;;5080805;28;20793;-88
2022/02/01 13:55:23;;;;;;;0.10;0.10;;;8.10;99.90;;;;;;5066503;28;20033;-88
2022/02/01 13:58:12;;;;;;;0.10;0.10;;;8.10;99.90;;;;;;5048742;28;20042;-90
2022/02/01 14:00:54;;;;;;;0.10;0.10;;;8.10;99.90;;;;;;5049481;28;20041;-91
2022/02/01 14:06:27;;;;;;;0.03;0.03;;;8.30;99.90;;;;;;5047609;28;20521;-90
2022/02/01 14:09:15;;;;;;;0.00;0.00;;;8.10;99.90;;;;;;5050937;28;20072;-91
2022/02/01 14:28:12;;;;;;;0.00;0.00;;;8.10;99.90;;;;;;5066545;28;20168;-92
2022/02/01 14:36:00;;;;;;;0.10;0.10;;;8.20;99.90;;;;;;5049119;28;20049;-93
2022/02/01 14:38:46;;;;;;;0.10;0.10;;;8.10;99.90;;;;;;5050130;28;20111;-94
2022/02/01 14:46:43;;;;;;;0.00;0.00;;;8.20;99.90;;;;;;5067648;28;20122;-90
2022/02/01 14:49:10;;;;;;;0.05;0.05;;;8.10;99.90;;;;;;5050823;28;20045;-91
2022/02/01 14:51:37;;;;;;;0.10;0.10;;;8.20;99.90;;;;;;5050765;28;20073;-92
2022/02/01 14:54:10;;;;;;;0.10;0.10;;;8.10;99.90;;;;;;5063036;28;20086;-91
2022/02/01 14:56:39;;;;;;;0.10;0.10;;;8.10;99.90;;;;;;5066812;28;20044;-95
2022/02/01 15:04:53;;;;;;;0.00;0.00;;;8.00;99.90;;;;;;5058880;28;20103;-89
2022/02/01 15:07:25;;;;;;;0.10;0.10;;;8.10;99.90;;;;;;5069014;28;20124;-87
2022/02/01 15:12:42;;;;;;;0.10;0.10;;;8.00;99.90;;;;;;5053310;28;20053;-87
2022/02/01 15:15:10;;;;;;;0.08;0.08;;;8.10;99.90;;;;;;5071024;28;20137;-87
2022/02/01 15:17:38;;;;;;;0.10;0.10;;;8.00;99.90;;;;;;5069717;28;20119;-88
2022/02/01 15:20:06;;;;;;;0.10;0.10;;;8.00;99.90;;;;;;5036570;28;20037;-87
2022/02/01 15:22:33;;;;;;;0.10;0.10;;;8.00;99.90;;;;;;5069869;28;20042;-87
2022/02/01 15:25:01;;;;;;;0.10;0.10;;;8.00;99.90;;;;;;5069172;28;20037;-87
2022/02/01 15:27:28;;;;;;;0.10;0.10;;;8.00;99.90;;;;;;5070308;28;20048;-87